createdAt,value
2022-11-26T00:01:22.667Z,15.55
2022-11-26T00:03:53.315Z,14.60
2022-11-26T00:06:24.533Z,14.90
2022-11-26T00:08:51.209Z,14.05
2022-11-26T00:11:17.775Z,13.43
2022-11-26T00:13:44.314Z,15.02
2022-11-26T00:16:13.657Z,13.95
2022-11-26T00:18:41.832Z,13.50
2022-11-26T00:21:20.385Z,13.38
2022-11-26T00:23:47.245Z,12.95
2022-11-26T00:26:18.295Z,12.38
2022-11-26T00:28:54.663Z,11.90
2022-11-26T00:31:21.724Z,11.77
2022-11-26T00:33:51.018Z,11.43
2022-11-26T00:36:26.191Z,11.55
2022-11-26T00:39:03.211Z,9.73
2022-11-26T00:41:33.786Z,9.50
2022-11-26T00:44:00.671Z,8.57
2022-11-26T00:46:27.432Z,9.35
2022-11-26T00:48:53.872Z,9.63
2022-11-26T00:51:23.663Z,9.55
2022-11-26T00:53:51.871Z,10.10
2022-11-26T00:56:20.700Z,9.23
2022-11-26T00:58:49.013Z,8.77
2022-11-26T01:01:37.654Z,9.40
2022-11-26T01:04:04.430Z,9.77
2022-11-26T01:06:34.126Z,10.27
2022-11-26T01:09:00.770Z,9.73
2022-11-26T01:11:28.632Z,8.85
2022-11-26T01:13:55.688Z,8.68
2022-11-26T01:16:22.281Z,8.65
2022-11-26T01:18:51.424Z,8.85
2022-11-26T01:21:18.714Z,9.13
2022-11-26T01:23:46.156Z,9.43
2022-11-26T01:26:18.693Z,9.23
2022-11-26T01:28:45.769Z,8.88
2022-11-26T01:31:21.587Z,8.43
2022-11-26T01:33:48.620Z,7.65
2022-11-26T01:36:23.148Z,8.10
2022-11-26T01:39:11.170Z,8.05
2022-11-26T01:41:52.072Z,8.07
2022-11-26T01:44:27.764Z,8.30
2022-11-26T01:47:22.393Z,7.78
2022-11-26T01:50:46.077Z,8.65
2022-11-26T01:53:19.100Z,7.95
2022-11-26T01:55:50.091Z,8.30
2022-11-26T01:58:28.610Z,9.05
2022-11-26T02:00:55.773Z,9.45
2022-11-26T02:03:23.072Z,9.40
2022-11-26T02:06:14.562Z,9.68
2022-11-26T02:08:41.399Z,9.73
2022-11-26T02:11:27.189Z,9.25
2022-11-26T02:14:01.194Z,9.25
2022-11-26T02:17:04.917Z,9.27
2022-11-26T02:19:43.670Z,10.02
2022-11-26T02:22:37.677Z,10.13
2022-11-26T02:25:22.804Z,9.32
2022-11-26T02:28:04.062Z,9.65
2022-11-26T02:30:36.505Z,9.87
2022-11-26T02:33:12.425Z,8.75
2022-11-26T02:35:38.842Z,9.18
2022-11-26T02:38:17.879Z,9.02
2022-11-26T02:40:44.407Z,9.07
2022-11-26T02:43:12.288Z,8.52
2022-11-26T02:45:42.462Z,8.90
2022-11-26T02:48:13.742Z,8.38
2022-11-26T02:50:47.305Z,8.17
2022-11-26T02:53:21.367Z,7.65
2022-11-26T02:55:52.999Z,7.47
2022-11-26T02:58:20.197Z,7.72
2022-11-26T03:00:53.299Z,8.18
2022-11-26T03:03:27.907Z,7.78
2022-11-26T03:05:59.985Z,6.90
2022-11-26T03:10:57.168Z,7.05
2022-11-26T03:13:23.687Z,7.25
2022-11-26T03:15:52.689Z,6.97
2022-11-26T03:18:19.188Z,7.20
2022-11-26T03:20:45.730Z,7.35
2022-11-26T03:23:12.322Z,7.18
2022-11-26T03:25:38.916Z,7.53
2022-11-26T03:28:05.920Z,7.30
2022-11-26T03:30:35.826Z,6.63
2022-11-26T03:33:02.418Z,7.22
2022-11-26T03:35:29.077Z,6.45
2022-11-26T03:37:55.759Z,6.25
2022-11-26T03:40:25.493Z,6.45
2022-11-26T03:42:52.026Z,7.13
2022-11-26T03:45:18.786Z,6.40
2022-11-26T03:47:45.316Z,6.40
2022-11-26T03:50:12.134Z,7.68
2022-11-26T03:52:38.653Z,5.90
2022-11-26T03:55:06.085Z,6.60
2022-11-26T03:57:32.632Z,6.38
2022-11-26T03:59:59.096Z,6.75
2022-11-26T04:02:25.651Z,6.47
2022-11-26T04:04:52.163Z,6.03
2022-11-26T04:07:18.703Z,6.72
2022-11-26T04:09:45.237Z,6.00
2022-11-26T04:12:11.674Z,6.80
2022-11-26T04:14:38.447Z,5.82
2022-11-26T04:17:05.160Z,6.85
2022-11-26T04:19:31.709Z,6.47
2022-11-26T04:21:58.276Z,5.65
2022-11-26T04:24:24.766Z,5.95
2022-11-26T04:26:51.239Z,6.32
2022-11-26T04:29:17.846Z,5.88
2022-11-26T04:31:47.294Z,6.00
2022-11-26T04:34:16.514Z,6.05
2022-11-26T04:36:42.994Z,6.07
2022-11-26T04:39:12.743Z,7.13
2022-11-26T04:41:39.226Z,7.55
2022-11-26T04:44:05.818Z,6.97
2022-11-26T04:46:32.331Z,7.28
2022-11-26T04:48:58.872Z,8.07
2022-11-26T04:51:28.800Z,7.80
2022-11-26T04:53:55.880Z,7.70
2022-11-26T04:56:22.895Z,7.72
2022-11-26T04:58:49.386Z,8.38
2022-11-26T05:01:15.930Z,8.95
2022-11-26T05:03:42.774Z,7.80
2022-11-26T05:06:10.749Z,8.27
2022-11-26T05:08:41.895Z,7.10
2022-11-26T05:11:08.444Z,7.43
2022-11-26T05:13:34.920Z,7.13
2022-11-26T05:16:04.897Z,7.35
2022-11-26T05:18:31.375Z,7.47
2022-11-26T05:21:01.188Z,8.55
2022-11-26T05:23:27.688Z,8.70
2022-11-26T05:25:54.169Z,7.43
2022-11-26T05:28:20.764Z,8.45
2022-11-26T05:30:47.797Z,6.70
2022-11-26T05:33:14.389Z,5.95
2022-11-26T05:35:41.015Z,7.07
2022-11-26T05:38:07.544Z,6.95
2022-11-26T05:40:34.135Z,7.53
2022-11-26T05:43:00.779Z,6.85
2022-11-26T05:45:27.309Z,7.30
2022-11-26T05:47:53.880Z,7.15
2022-11-26T05:50:20.400Z,6.90
2022-11-26T05:52:46.973Z,6.75
2022-11-26T05:55:13.533Z,6.60
2022-11-26T05:57:40.012Z,6.22
2022-11-26T06:00:08.521Z,6.10
2022-11-26T06:02:35.100Z,6.72
2022-11-26T06:05:06.626Z,7.38
2022-11-26T06:07:33.358Z,6.38
2022-11-26T06:09:59.918Z,6.75
2022-11-26T06:12:26.417Z,6.57
2022-11-26T06:14:53.467Z,9.13
2022-11-26T06:17:20.651Z,7.93
2022-11-26T06:19:47.266Z,8.35
2022-11-26T06:22:13.713Z,8.57
2022-11-26T06:24:40.362Z,8.00
2022-11-26T06:27:07.262Z,7.75
2022-11-26T06:29:33.920Z,7.57
2022-11-26T06:32:00.452Z,8.45
2022-11-26T06:34:27.038Z,8.05
2022-11-26T06:36:53.753Z,8.43
2022-11-26T06:39:20.234Z,8.48
2022-11-26T06:41:46.768Z,8.38
2022-11-26T06:44:16.271Z,7.65
2022-11-26T06:46:42.787Z,6.93
2022-11-26T06:49:10.167Z,7.38
2022-11-26T06:51:36.708Z,7.13
2022-11-26T06:54:03.190Z,7.28
2022-11-26T06:56:29.687Z,7.70
2022-11-26T06:58:56.337Z,7.35
2022-11-26T07:01:26.110Z,7.80
2022-11-26T07:03:53.529Z,7.28
2022-11-26T07:06:23.263Z,8.30
2022-11-26T07:08:51.547Z,7.88
2022-11-26T07:11:18.387Z,8.00
2022-11-26T07:13:45.180Z,7.30
2022-11-26T07:16:12.723Z,7.63
2022-11-26T07:18:42.172Z,7.72
2022-11-26T07:21:12.195Z,7.70
2022-11-26T07:23:39.751Z,8.40
2022-11-26T07:26:07.303Z,8.50
2022-11-26T07:28:34.995Z,9.15
2022-11-26T07:31:11.574Z,8.65
2022-11-26T07:33:41.980Z,8.68
2022-11-26T07:36:18.204Z,8.90
2022-11-26T07:38:48.281Z,8.02
2022-11-26T07:41:17.841Z,8.48
2022-11-26T07:43:45.223Z,8.45
2022-11-26T07:46:14.388Z,8.48
2022-11-26T07:48:41.002Z,9.45
2022-11-26T07:51:15.493Z,8.75
2022-11-26T07:53:41.981Z,9.40
2022-11-26T07:56:08.642Z,9.23
2022-11-26T07:58:35.485Z,8.15
2022-11-26T08:01:19.182Z,9.07
2022-11-26T08:03:48.268Z,8.05
2022-11-26T08:06:26.119Z,8.77
2022-11-26T08:08:52.681Z,8.38
2022-11-26T08:11:24.636Z,8.55
2022-11-26T08:16:28.447Z,10.02
2022-11-26T08:18:57.518Z,8.88
2022-11-26T08:21:27.374Z,8.90
2022-11-26T08:23:57.452Z,8.80
2022-11-26T08:26:33.507Z,8.23
2022-11-26T08:29:03.298Z,9.60
2022-11-26T08:31:33.062Z,8.35
2022-11-26T08:34:03.606Z,8.63
2022-11-26T08:36:31.354Z,8.88
2022-11-26T08:39:01.218Z,7.93
2022-11-26T08:41:29.767Z,8.45
2022-11-26T08:44:11.691Z,7.93
2022-11-26T08:46:42.065Z,8.20
2022-11-26T08:49:12.245Z,8.45
2022-11-26T08:51:39.084Z,8.23
2022-11-26T08:54:08.631Z,8.20
2022-11-26T08:56:35.766Z,8.27
2022-11-26T08:59:02.902Z,8.77
2022-11-26T09:01:32.532Z,7.88
2022-11-26T09:04:02.663Z,9.50
2022-11-26T09:06:31.228Z,9.07
2022-11-26T09:09:13.236Z,9.75
2022-11-26T09:14:11.248Z,10.05
2022-11-26T09:16:38.435Z,12.43
2022-11-26T09:19:06.621Z,12.25
2022-11-26T09:21:36.943Z,12.05
2022-11-26T09:24:03.966Z,13.05
2022-11-26T09:26:34.312Z,13.25
2022-11-26T09:29:01.675Z,13.05
2022-11-26T09:31:30.204Z,12.70
2022-11-26T09:33:58.512Z,12.13
2022-11-26T09:36:25.229Z,11.82
2022-11-26T09:38:59.039Z,10.90
2022-11-26T09:41:47.480Z,12.15
2022-11-26T09:44:38.429Z,10.30
2022-11-26T09:47:13.219Z,10.43
2022-11-26T09:49:58.684Z,10.57
2022-11-26T09:52:37.790Z,11.02
2022-11-26T09:55:14.450Z,10.50
2022-11-26T09:57:47.552Z,10.38
2022-11-26T10:00:23.087Z,8.98
2022-11-26T10:02:55.279Z,9.52
2022-11-26T10:05:27.363Z,9.35
2022-11-26T10:07:56.854Z,9.55
2022-11-26T10:10:38.070Z,9.95
2022-11-26T10:13:32.867Z,11.00
2022-11-26T10:15:59.513Z,9.55
2022-11-26T10:18:26.056Z,10.65
2022-11-26T10:21:14.170Z,10.43
2022-11-26T10:23:46.180Z,10.00
2022-11-26T10:29:13.657Z,9.70
2022-11-26T10:31:42.647Z,10.07
2022-11-26T10:34:16.682Z,9.77
2022-11-26T10:36:45.874Z,9.48
2022-11-26T10:39:15.453Z,8.75
2022-11-26T10:41:42.005Z,10.30
2022-11-26T10:44:28.146Z,9.77
2022-11-26T10:46:55.149Z,9.45
2022-11-26T10:49:23.802Z,9.88
2022-11-26T10:52:07.993Z,10.35
2022-11-26T10:54:37.535Z,9.70
2022-11-26T10:57:10.298Z,8.88
2022-11-26T10:59:53.387Z,8.63
2022-11-26T11:02:19.847Z,8.98
2022-11-26T11:04:51.533Z,8.80
2022-11-26T11:07:39.987Z,7.72
2022-11-26T11:10:09.583Z,8.25
2022-11-26T11:12:41.380Z,7.50
2022-11-26T11:15:29.419Z,7.82
2022-11-26T11:18:01.224Z,7.10
2022-11-26T11:20:30.686Z,8.30
2022-11-26T11:23:19.997Z,8.02
2022-11-26T11:25:58.402Z,8.25
2022-11-26T11:28:28.253Z,8.20
2022-11-26T11:31:20.819Z,8.02
2022-11-26T11:33:48.905Z,7.82
2022-11-26T11:36:15.458Z,7.72
2022-11-26T11:38:50.652Z,6.38
2022-11-26T11:41:32.273Z,7.72
2022-11-26T11:44:23.103Z,7.90
2022-11-26T11:47:01.011Z,8.25
2022-11-26T11:49:46.196Z,9.07
2022-11-26T11:52:15.716Z,8.57
2022-11-26T11:55:10.487Z,8.95
2022-11-26T11:58:12.397Z,8.40
2022-11-26T12:01:06.601Z,7.93
2022-11-26T12:03:51.870Z,7.22
2022-11-26T12:06:41.615Z,7.85
2022-11-26T12:09:44.353Z,7.80
2022-11-26T12:12:27.077Z,7.35
2022-11-26T12:15:01.536Z,7.63
2022-11-26T12:17:43.508Z,7.88
2022-11-26T12:20:32.044Z,7.80
2022-11-26T12:23:24.834Z,7.35
2022-11-26T12:26:06.197Z,7.25
2022-11-26T12:28:43.212Z,7.93
2022-11-26T12:31:44.290Z,7.65
2022-11-26T12:34:25.481Z,7.28
2022-11-26T12:37:15.462Z,8.23
2022-11-26T12:39:56.666Z,7.50
2022-11-26T12:42:30.182Z,7.47
2022-11-26T12:45:04.286Z,7.22
2022-11-26T12:47:46.652Z,7.13
2022-11-26T12:50:16.187Z,8.02
2022-11-26T12:53:07.463Z,7.15
2022-11-26T12:55:56.869Z,7.50
2022-11-26T12:58:49.102Z,7.95
2022-11-26T13:01:15.931Z,7.38
2022-11-26T13:03:46.111Z,6.95
2022-11-26T13:07:03.292Z,6.38
2022-11-26T13:09:54.707Z,6.38
2022-11-26T13:12:45.359Z,6.47
2022-11-26T13:15:25.062Z,6.72
2022-11-26T13:17:55.134Z,5.70
2022-11-26T13:20:35.948Z,5.63
2022-11-26T13:23:22.251Z,6.00
2022-11-26T13:26:10.518Z,5.30
2022-11-26T13:29:19.920Z,5.75
2022-11-26T13:32:26.044Z,6.00
2022-11-26T13:35:04.513Z,6.43
2022-11-26T13:37:45.519Z,5.85
2022-11-26T13:40:57.387Z,6.35
2022-11-26T13:43:53.647Z,6.13
2022-11-26T13:46:22.351Z,6.35
2022-11-26T13:49:31.048Z,6.40
2022-11-26T13:52:08.590Z,6.68
2022-11-26T13:54:51.374Z,6.80
2022-11-26T13:57:31.540Z,6.70
2022-11-26T13:59:59.114Z,6.55
2022-11-26T14:02:34.771Z,6.53
2022-11-26T14:05:05.019Z,7.25
2022-11-26T14:07:31.666Z,6.03
2022-11-26T14:10:04.406Z,6.00
2022-11-26T14:13:01.687Z,6.60
2022-11-26T14:15:43.578Z,6.00
2022-11-26T14:18:14.724Z,6.45
2022-11-26T14:21:03.813Z,5.67
2022-11-26T14:23:47.391Z,5.72
2022-11-26T14:26:19.412Z,6.60
2022-11-26T14:31:23.402Z,9.35
2022-11-26T14:33:57.093Z,6.80
2022-11-26T14:36:29.368Z,10.52
2022-11-26T14:39:22.909Z,7.15
2022-11-26T14:41:49.422Z,5.97
2022-11-26T14:44:17.674Z,7.00
2022-11-26T14:46:54.298Z,6.38
2022-11-26T14:49:24.184Z,6.90
2022-11-26T14:51:53.533Z,7.60
2022-11-26T14:54:28.318Z,6.22
2022-11-26T14:56:57.267Z,6.13
2022-11-26T14:59:27.350Z,6.45
2022-11-26T15:01:53.941Z,5.70
2022-11-26T15:04:25.660Z,6.53
2022-11-26T15:06:52.329Z,6.70
2022-11-26T15:09:21.660Z,7.60
2022-11-26T15:11:57.639Z,6.72
2022-11-26T15:14:27.092Z,8.65
2022-11-26T15:17:05.556Z,9.50
2022-11-26T15:19:38.357Z,10.13
2022-11-26T15:22:22.018Z,12.18
2022-11-26T15:24:52.878Z,12.02
2022-11-26T15:27:39.589Z,10.43
2022-11-26T15:30:30.710Z,9.52
2022-11-26T15:33:09.429Z,7.22
2022-11-26T15:35:36.617Z,9.93
2022-11-26T15:38:12.912Z,11.27
2022-11-26T15:40:49.956Z,15.55
2022-11-26T15:43:23.023Z,12.13
2022-11-26T15:45:53.721Z,10.23
2022-11-26T15:48:29.829Z,9.27
2022-11-26T15:51:29.424Z,7.75
2022-11-26T15:53:59.499Z,10.05
2022-11-26T15:56:32.321Z,9.55
2022-11-26T15:59:03.200Z,13.65
2022-11-26T16:01:34.595Z,19.42
2022-11-26T16:04:06.595Z,9.82
2022-11-26T16:09:06.456Z,7.88
2022-11-26T16:11:36.704Z,8.85
2022-11-26T16:14:30.847Z,8.90
2022-11-26T16:17:07.847Z,9.30
2022-11-26T16:19:35.046Z,11.32
2022-11-26T16:22:04.124Z,12.45
2022-11-26T16:24:43.663Z,14.57
2022-11-26T16:27:20.720Z,11.40
2022-11-26T16:29:47.524Z,11.48
2022-11-26T16:32:16.281Z,11.35
2022-11-26T16:34:43.294Z,10.05
2022-11-26T16:37:20.727Z,8.75
2022-11-26T16:39:49.909Z,11.32
2022-11-26T16:42:19.539Z,10.32
2022-11-26T16:44:46.124Z,10.40
2022-11-26T16:47:36.883Z,11.45
2022-11-26T16:50:03.737Z,11.30
2022-11-26T16:52:40.891Z,11.30
2022-11-26T16:55:11.346Z,12.13
2022-11-26T16:57:41.380Z,14.95
2022-11-26T17:00:13.929Z,15.52
2022-11-26T17:02:40.675Z,13.32
2022-11-26T17:05:07.555Z,14.13
2022-11-26T17:07:40.738Z,14.02
2022-11-26T17:10:11.199Z,11.73
2022-11-26T17:12:37.711Z,8.48
2022-11-26T17:15:04.697Z,8.75
2022-11-26T17:17:31.199Z,13.20
2022-11-26T17:19:57.756Z,12.85
2022-11-26T17:22:25.339Z,10.85
2022-11-26T17:24:51.965Z,10.70
2022-11-26T17:27:20.663Z,11.02
2022-11-26T17:29:47.706Z,11.93
2022-11-26T17:32:17.088Z,9.82
2022-11-26T17:34:45.363Z,12.02
2022-11-26T17:37:20.324Z,12.85
2022-11-26T17:39:46.859Z,13.70
2022-11-26T17:42:13.307Z,14.43
2022-11-26T17:44:39.862Z,13.55
2022-11-26T17:47:17.222Z,11.02
2022-11-26T17:49:45.523Z,13.15
2022-11-26T17:52:12.466Z,13.93
2022-11-26T17:54:39.420Z,12.65
2022-11-26T17:57:06.562Z,12.25
2022-11-26T17:59:33.386Z,13.25
2022-11-26T18:02:01.702Z,14.15
2022-11-26T18:04:28.724Z,13.85
2022-11-26T18:07:05.523Z,12.45
2022-11-26T18:09:32.971Z,12.52
2022-11-26T18:12:00.264Z,12.73
2022-11-26T18:14:27.620Z,11.90
2022-11-26T18:16:54.711Z,11.52
2022-11-26T18:19:23.380Z,11.52
2022-11-26T18:21:50.878Z,12.68
2022-11-26T18:24:18.046Z,19.02
2022-11-26T18:26:44.558Z,17.63
2022-11-26T18:29:13.128Z,15.48
2022-11-26T18:31:40.149Z,15.30
2022-11-26T18:34:07.722Z,12.52
2022-11-26T18:36:34.286Z,13.13
2022-11-26T18:39:06.314Z,11.82
2022-11-26T18:44:04.003Z,13.45
2022-11-26T18:46:30.625Z,12.60
2022-11-26T18:48:58.324Z,11.13
2022-11-26T18:51:24.978Z,11.75
2022-11-26T18:53:51.741Z,11.90
2022-11-26T18:56:23.464Z,13.73
2022-11-26T18:58:50.890Z,12.32
2022-11-26T19:01:21.774Z,11.73
2022-11-26T19:03:50.987Z,12.35
2022-11-26T19:06:20.581Z,11.23
2022-11-26T19:08:48.162Z,12.20
2022-11-26T19:11:20.723Z,10.43
2022-11-26T19:13:51.331Z,10.48
2022-11-26T19:16:21.843Z,10.32
2022-11-26T19:18:48.799Z,9.38
2022-11-26T19:21:20.987Z,10.70
2022-11-26T19:23:50.940Z,10.02
2022-11-26T19:26:18.672Z,10.48
2022-11-26T19:28:45.242Z,10.43
2022-11-26T19:31:17.391Z,11.50
2022-11-26T19:33:46.448Z,12.30
2022-11-26T19:36:18.688Z,13.18
2022-11-26T19:38:45.410Z,16.80
2022-11-26T19:41:12.546Z,22.70
2022-11-26T19:43:41.083Z,20.15
2022-11-26T19:46:09.368Z,21.38
2022-11-26T19:48:37.864Z,20.27
2022-11-26T19:51:05.922Z,21.02
2022-11-26T19:53:33.301Z,21.15
2022-11-26T19:56:21.062Z,20.25
2022-11-26T19:58:47.702Z,18.58
2022-11-26T20:01:15.970Z,17.90
2022-11-26T20:03:43.444Z,16.92
2022-11-26T20:06:17.053Z,13.30
2022-11-26T20:08:44.464Z,11.50
2022-11-26T20:11:11.382Z,11.68
2022-11-26T20:13:43.598Z,14.65
2022-11-26T20:16:14.099Z,12.60
2022-11-26T20:18:43.770Z,13.65
2022-11-26T20:21:13.187Z,18.52
2022-11-26T20:23:40.168Z,19.77
2022-11-26T20:26:19.006Z,16.30
2022-11-26T20:28:45.906Z,17.38
2022-11-26T20:31:21.869Z,10.88
2022-11-26T20:33:53.210Z,9.18
2022-11-26T20:36:25.406Z,8.73
2022-11-26T20:38:57.117Z,10.45
2022-11-26T20:41:26.470Z,13.48
2022-11-26T20:43:59.169Z,15.55
2022-11-26T20:46:26.858Z,17.05
2022-11-26T20:48:53.377Z,16.58
2022-11-26T20:51:22.013Z,17.67
2022-11-26T20:53:52.133Z,21.70
2022-11-26T20:56:21.079Z,17.02
2022-11-26T20:58:48.101Z,14.88
2022-11-26T21:01:21.432Z,13.50
2022-11-26T21:03:48.388Z,14.32
2022-11-26T21:06:16.897Z,10.57
2022-11-26T21:08:43.877Z,8.27
2022-11-26T21:11:11.659Z,6.65
2022-11-26T21:13:39.237Z,6.90
2022-11-26T21:16:10.406Z,6.45
2022-11-26T21:18:37.144Z,6.32
2022-11-26T21:21:14.518Z,6.82
2022-11-26T21:23:42.436Z,5.60
2022-11-26T21:26:12.189Z,5.78
2022-11-26T21:28:38.761Z,6.30
2022-11-26T21:31:10.526Z,6.65
2022-11-26T21:33:37.024Z,5.88
2022-11-26T21:36:10.460Z,6.93
2022-11-26T21:38:37.555Z,6.60
2022-11-26T21:41:10.926Z,5.97
2022-11-26T21:43:37.911Z,5.90
2022-11-26T21:46:06.656Z,6.70
2022-11-26T21:48:35.568Z,6.35
2022-11-26T21:51:10.078Z,5.93
2022-11-26T21:53:36.646Z,5.85
2022-11-26T21:56:09.271Z,5.85
2022-11-26T21:58:37.117Z,5.45
2022-11-26T22:01:16.041Z,6.20
2022-11-26T22:03:48.351Z,5.97
2022-11-26T22:06:16.205Z,5.75
2022-11-26T22:08:47.358Z,5.82
2022-11-26T22:11:17.965Z,5.60
2022-11-26T22:13:45.137Z,5.88
2022-11-26T22:16:13.962Z,6.10
2022-11-26T22:18:44.472Z,6.35
2022-11-26T22:21:16.831Z,6.13
2022-11-26T22:23:43.625Z,6.05
2022-11-26T22:26:10.327Z,6.43
2022-11-26T22:28:38.614Z,5.88
2022-11-26T22:31:20.631Z,6.47
2022-11-26T22:33:48.119Z,6.55
2022-11-26T22:36:14.721Z,6.30
2022-11-26T22:38:42.081Z,6.25
2022-11-26T22:41:11.772Z,6.47
2022-11-26T22:43:42.741Z,6.38
2022-11-26T22:46:19.915Z,6.07
2022-11-26T22:49:01.154Z,6.07
2022-11-26T22:51:29.943Z,6.10
2022-11-26T22:54:04.740Z,6.25
2022-11-26T22:56:31.464Z,5.82
2022-11-26T22:59:01.373Z,5.38
2022-11-26T23:01:30.955Z,6.38
2022-11-26T23:03:59.436Z,6.40
2022-11-26T23:06:32.745Z,6.15
2022-11-26T23:09:00.436Z,6.30
2022-11-26T23:11:30.024Z,5.75
2022-11-26T23:13:57.027Z,5.95
2022-11-26T23:16:26.008Z,5.35
2022-11-26T23:18:57.232Z,6.32
2022-11-26T23:21:26.777Z,6.03
2022-11-26T23:23:53.728Z,6.03
2022-11-26T23:26:27.896Z,5.65
2022-11-26T23:28:56.006Z,6.20
2022-11-26T23:31:26.204Z,6.10
2022-11-26T23:33:53.630Z,6.03
2022-11-26T23:36:20.666Z,6.22
2022-11-26T23:38:47.876Z,6.75
2022-11-26T23:41:14.845Z,6.40
2022-11-26T23:43:41.900Z,5.90
2022-11-26T23:46:11.601Z,5.70
2022-11-26T23:48:47.671Z,5.97
2022-11-26T23:51:16.923Z,6.28
2022-11-26T23:53:45.655Z,6.13
2022-11-26T23:56:15.064Z,6.35
2022-11-26T23:58:47.838Z,6.55
